Ana Sayfa
METAR-TAF:

METAR-TAF

Havaalanları :

Fayetteville, Kuzey Carolina, Amerika Birleşik Devletleri

Enlem: 34-59-22N, Boylam: 078-52-48W, yükseklik: 57 m

Güncel hava durumu gözlemi

Rapor saat 03:53 UTC de 49 dakika önce yapıldı.
Rüzgar güneydan 4 kt
Sıcaklık 8°C
Nem 76%
Basınç 1022 hPa
Görüş mesafesi: 16.1 km
Açık gökyüzü

METAR: KFAY 160353Z 17004KT 10SM CLR 08/04 A3017 RMK AO2 SLP212 T00780039

Saat: 23:42 (04:42 UTC)

Tahmin

Rapor saat 23:37 UTC de 5 saat ve 5 dakika önce yapıldı.
Ayın 16'si saat 00 UTC'den ayın 16'si saat 24 UTC'ye kadar geçerli Tahmin
Rüzgar güneydan 3 kt
Görüş mesafesi: 10 km
Açık gökyüzü
Ayın 16'si saat 1500 UTC'den
Rüzgar güney/güneybatıdan 7 kt ve 16 kt'a kadar ani rüzgarlar
Görüş mesafesi: 10 km
25000 ft yükseklikte parçalı bulutlu

TAF: KFAY 152337Z 1600/1624 19003KT P6SM SKC FM161500 20007G16KT P6SM SCT250

4.000'den fazla havaalanı için hava durumu gözlemleri ve tahminleri (METAR ve TAF raporları).

Kullanılabilir istasyonlar harita üzerinde sarı ve kırmızı noktalarla gösterilir.

İstasyonun adını görmek için fareyi noktanın üzerinde gezdirin.

Sonrasında hava gözlem ve tahminlerini görmek için tıklayın.

Haritayı değiştirmek için: yaklaştırmak için siyah artı işaretli yeşil düğmeye ve uzaklaştırmak için de eksi işaretli düğmeye hızla tıklayın; bitişik haritalar için yeşil okları kullanın.


METAR-TAF: